Time;durP1;ratioP1;P1;durP2;ratioP2;P2;SDS_P1;SDS_P2;PMS_P1;PMS_P2;Temp;Humidity;BMP_temperature;BMP_pressure;BME280_temperature;BME280_humidity;BME280_pressure;Samples;Min_cycle;Max_cycle;Signal;HPM_P1;HPM_P2
2023/10/29 00:00:31;;;;;;;16.48;2.60;;;;;;;12.58;100.00;97304.09;5071510;28;20044;-74
2023/10/29 00:02:57;;;;;;;6.05;3.35;;;;;;;12.55;100.00;97301.63;5071286;28;20488;-74
2023/10/29 00:05:23;;;;;;;11.43;3.22;;;;;;;12.51;100.00;97306.38;5071170;28;20059;-75
2023/10/29 00:07:49;;;;;;;4.82;2.45;;;;;;;12.53;100.00;97309.78;5070952;28;20047;-73
2023/10/29 00:10:18;;;;;;;9.20;2.67;;;;;;;12.52;100.00;97316.97;5072737;28;20510;-74
2023/10/29 00:12:44;;;;;;;7.03;2.90;;;;;;;12.56;100.00;97327.47;5071096;28;20037;-74
2023/10/29 00:15:09;;;;;;;6.53;3.17;;;;;;;12.54;100.00;97311.50;5070978;28;20025;-75
2023/10/29 00:17:35;;;;;;;6.32;2.70;;;;;;;12.59;100.00;97321.88;5072490;28;20036;-74
2023/10/29 00:20:02;;;;;;;7.93;2.78;;;;;;;12.53;100.00;97315.16;5070867;28;20464;-74
2023/10/29 00:22:28;;;;;;;9.45;3.58;;;;;;;12.48;100.00;97306.59;5087762;28;20071;-73
2023/10/29 00:24:53;;;;;;;6.57;3.22;;;;;;;12.59;100.00;97319.19;5087648;28;20412;-74
2023/10/29 00:27:19;;;;;;;7.47;3.58;;;;;;;12.56;100.00;97316.75;5070927;28;20115;-74
2023/10/29 00:29:46;;;;;;;7.70;3.00;;;;;;;12.51;100.00;97306.38;5070651;28;20032;-73
2023/10/29 00:32:13;;;;;;;11.68;3.53;;;;;;;12.56;100.00;97322.97;5072159;28;20024;-74
2023/10/29 00:34:38;;;;;;;6.35;3.03;;;;;;;12.50;100.00;97313.56;5070790;28;20033;-73
2023/10/29 00:37:04;;;;;;;7.03;2.90;;;;;;;12.44;100.00;97316.69;5070626;28;20040;-73
2023/10/29 00:39:29;;;;;;;6.13;3.00;;;;;;;12.40;100.00;97315.19;5087566;28;20020;-74
2023/10/29 00:41:55;;;;;;;8.25;2.80;;;;;;;12.41;100.00;97319.59;5071700;28;20059;-73
2023/10/29 00:44:21;;;;;;;6.78;2.83;;;;;;;12.40;100.00;97325.06;5070306;28;20028;-73
2023/10/29 00:46:46;;;;;;;7.28;3.55;;;;;;;12.27;100.00;97322.44;5070598;28;20479;-74
2023/10/29 00:49:12;;;;;;;6.43;2.95;;;;;;;12.20;100.00;97320.28;5070247;28;20017;-73
2023/10/29 00:51:38;;;;;;;6.60;3.25;;;;;;;12.12;100.00;97315.47;5070683;28;20150;-74
2023/10/29 00:54:04;;;;;;;9.25;3.30;;;;;;;12.12;100.00;97326.19;5071563;28;20032;-73
2023/10/29 00:56:30;;;;;;;9.55;2.83;;;;;;;12.10;100.00;97330.81;5070296;28;20043;-73
2023/10/29 00:58:56;;;;;;;6.60;2.55;;;;;;;12.07;100.00;97330.16;5070061;28;20545;-73
2023/10/29 01:01:22;;;;;;;10.27;3.10;;;;;;;12.06;100.00;97331.16;5070223;28;20032;-74
2023/10/29 01:03:48;;;;;;;8.60;2.70;;;;;;;11.96;100.00;97336.31;5053505;28;20072;-72
2023/10/29 01:06:13;;;;;;;4.55;3.03;;;;;;;11.94;100.00;97338.22;5069891;28;20032;-73
2023/10/29 01:08:40;;;;;;;6.90;2.85;;;;;;;11.91;100.00;97335.75;5070311;28;20028;-75
2023/10/29 01:11:07;;;;;;;5.57;2.83;;;;;;;11.90;100.00;97334.06;5069986;28;20108;-73
2023/10/29 01:13:33;;;;;;;5.38;3.05;;;;;;;11.87;100.00;97331.59;5070031;28;20139;-74
2023/10/29 01:15:58;;;;;;;9.27;3.28;;;;;;;11.82;100.00;97325.69;5053141;28;20025;-74
2023/10/29 01:18:24;;;;;;;13.90;3.00;;;;;;;11.88;100.00;97333.31;5069879;28;20436;-74
2023/10/29 01:20:50;;;;;;;8.63;3.10;;;;;;;11.73;100.00;97324.53;5069767;28;20044;-74
2023/10/29 01:23:17;;;;;;;9.07;3.15;;;;;;;11.67;100.00;97332.97;5070917;28;20039;-75
2023/10/29 01:25:43;;;;;;;8.10;3.75;;;;;;;11.64;100.00;97330.50;5064558;28;20115;-74
2023/10/29 01:28:12;;;;;;;6.93;3.38;;;;;;;11.46;100.00;97314.84;5069624;28;20468;-73
2023/10/29 01:30:38;;;;;;;6.63;2.72;;;;;;;11.52;100.00;97322.44;5069823;28;20036;-75
2023/10/29 01:33:03;;;;;;;9.00;2.72;;;;;;;11.52;100.00;97320.63;5069463;28;20042;-73
2023/10/29 01:35:29;;;;;;;5.50;2.90;;;;;;;11.50;100.00;97338.63;5069619;28;20028;-73
2023/10/29 01:37:54;;;;;;;4.85;2.97;;;;;;;11.47;100.00;97333.50;5070850;28;20020;-74
2023/10/29 01:40:20;;;;;;;7.18;3.20;;;;;;;11.47;100.00;97336.19;5086158;28;20028;-73
2023/10/29 01:42:46;;;;;;;9.43;3.03;;;;;;;11.46;100.00;97336.25;5070777;28;20025;-73
2023/10/29 01:45:14;;;;;;;6.15;2.70;;;;;;;11.49;100.00;97344.09;5069674;28;20507;-73
2023/10/29 01:47:48;;;;;;;8.60;3.17;;;;;;;11.56;100.00;97348.06;5069881;28;20024;-72
2023/10/29 01:50:15;;;;;;;5.50;3.05;;;;;;;11.59;100.00;97343.38;5069512;28;20107;-72
2023/10/29 01:52:40;;;;;;;6.07;3.10;;;;;;;11.47;100.00;97356.75;5069490;28;20028;-75
2023/10/29 01:55:06;;;;;;;6.68;3.35;;;;;;;11.40;100.00;97357.16;5085526;28;20032;-73
2023/10/29 01:57:36;;;;;;;9.25;3.30;;;;;;;11.35;100.00;97366.47;5052522;28;20024;-73
2023/10/29 02:00:08;;;;;;;5.95;3.00;;;;;;;11.42;100.00;97368.63;5086137;28;20167;-73
2023/10/29 02:02:34;;;;;;;10.50;3.00;;;;;;;11.34;100.00;97365.63;5069437;28;20028;-73
2023/10/29 02:05:03;;;;;;;5.18;2.92;;;;;;;11.34;100.00;97360.25;5070358;28;20333;-74
2023/10/29 02:07:29;;;;;;;6.47;3.13;;;;;;;11.39;100.00;97368.81;5069458;28;20492;-72
2023/10/29 02:09:55;;;;;;;6.75;3.10;;;;;;;11.34;100.00;97354.91;5068947;28;20024;-73
2023/10/29 02:12:20;;;;;;;12.48;3.70;;;;;;;11.34;100.00;97362.94;5085769;28;20025;-73
2023/10/29 02:14:46;;;;;;;8.80;3.20;;;;;;;11.35;100.00;97366.47;5070164;28;20404;-73
2023/10/29 02:17:11;;;;;;;7.70;3.25;;;;;;;11.38;100.00;97364.41;5069238;28;20036;-74
2023/10/29 02:19:37;;;;;;;6.07;3.00;;;;;;;11.31;100.00;97368.50;5070183;28;20051;-74
2023/10/29 02:22:02;;;;;;;6.32;2.97;;;;;;;11.28;100.00;97368.72;5051935;28;20037;-72
2023/10/29 02:24:28;;;;;;;6.95;2.85;;;;;;;11.25;100.00;97376.94;5069035;28;20094;-73
2023/10/29 02:26:53;;;;;;;9.65;2.90;;;;;;;11.24;100.00;97367.19;5068714;28;20069;-73
2023/10/29 02:29:19;;;;;;;11.43;3.22;;;;;;;11.20;100.00;97372.84;5069102;28;20051;-73
2023/10/29 02:31:44;;;;;;;5.57;2.95;;;;;;;11.19;100.00;97382.72;5068769;28;20056;-74
2023/10/29 02:34:11;;;;;;;6.75;3.00;;;;;;;11.13;100.00;97383.13;5052256;28;20032;-74
2023/10/29 02:36:37;;;;;;;5.70;3.17;;;;;;;11.13;100.00;97382.25;5070112;28;20039;-74
2023/10/29 02:39:02;;;;;;;6.30;2.78;;;;;;;11.13;100.00;97371.56;5069919;28;20036;-73
2023/10/29 02:41:28;;;;;;;4.88;2.83;;;;;;;11.15;100.00;97377.66;5070100;28;20104;-73
2023/10/29 02:43:55;;;;;;;6.78;3.10;;;;;;;11.14;100.00;97379.47;5069877;28;20055;-73
2023/10/29 02:46:21;;;;;;;8.35;3.10;;;;;;;11.14;100.00;97379.47;5069001;28;20503;-74
2023/10/29 02:48:46;;;;;;;6.75;3.00;;;;;;;11.08;100.00;97377.19;5069044;28;20058;-73
2023/10/29 02:51:12;;;;;;;5.30;2.97;;;;;;;11.07;100.00;97383.53;5068675;28;20233;-74
2023/10/29 02:53:38;;;;;;;7.93;2.97;;;;;;;11.09;100.00;97392.31;5068520;28;20036;-73
2023/10/29 02:56:04;;;;;;;6.30;2.90;;;;;;;11.14;100.00;97395.53;5068498;28;20484;-75
2023/10/29 02:58:29;;;;;;;5.82;3.08;;;;;;;11.08;100.00;97389.72;5068663;28;20038;-74
2023/10/29 03:01:04;;;;;;;6.90;2.85;;;;;;;11.06;100.00;97397.88;5069860;28;20488;-74
2023/10/29 03:03:30;;;;;;;6.60;3.13;;;;;;;10.97;100.00;97392.25;5066730;28;20103;-74
2023/10/29 03:05:55;;;;;;;6.72;2.83;;;;;;;10.97;100.00;97397.63;5068848;28;20099;-73
2023/10/29 03:08:21;;;;;;;13.88;3.13;;;;;;;10.95;100.00;97405.72;5054141;28;20568;-73
2023/10/29 03:10:49;;;;;;;7.75;3.03;;;;;;;10.93;100.00;97406.78;5073671;28;20027;-74
2023/10/29 03:13:15;;;;;;;9.85;3.47;;;;;;;10.99;100.00;97412.59;5073558;28;20140;-72
2023/10/29 03:15:40;;;;;;;5.50;2.78;;;;;;;10.95;100.00;97405.72;5089261;28;20024;-75
2023/10/29 03:18:06;;;;;;;9.57;3.30;;;;;;;10.93;100.00;97413.00;5072114;28;20111;-73
2023/10/29 03:20:31;;;;;;;5.07;2.60;;;;;;;10.92;100.00;97400.56;5073171;28;20074;-75
2023/10/29 03:22:57;;;;;;;5.40;2.85;;;;;;;10.83;100.00;97406.53;5072125;28;20029;-75
2023/10/29 03:25:22;;;;;;;8.95;3.08;;;;;;;10.70;100.00;97409.19;5088697;28;20017;-73
2023/10/29 03:27:48;;;;;;;11.32;3.08;;;;;;;10.59;100.00;97408.97;5072449;28;20028;-75
2023/10/29 03:30:14;;;;;;;7.78;3.40;;;;;;;10.57;100.00;97405.56;5088609;28;20028;-76
2023/10/29 03:32:40;;;;;;;21.67;3.65;;;;;;;10.60;100.00;97410.72;5071956;28;20117;-75
2023/10/29 03:35:06;;;;;;;6.20;3.30;;;;;;;10.54;100.00;97410.25;5089074;28;20500;-75
2023/10/29 03:37:32;;;;;;;5.22;3.00;;;;;;;10.52;100.00;97418.34;5071686;28;20328;-76
2023/10/29 03:39:58;;;;;;;9.88;3.35;;;;;;;10.40;100.00;97415.63;5073043;28;20024;-76
2023/10/29 03:42:23;;;;;;;6.55;3.00;;;;;;;10.41;100.00;97423.53;5071621;28;20032;-74
2023/10/29 03:44:49;;;;;;;8.52;2.80;;;;;;;10.41;100.00;97420.84;5055016;28;20495;-74
2023/10/29 03:47:14;;;;;;;6.78;2.53;;;;;;;10.36;100.00;97416.75;5073044;28;20028;-74
2023/10/29 03:49:42;;;;;;;5.50;2.83;;;;;;;10.24;100.00;97426.41;5071523;28;20476;-73
2023/10/29 03:52:07;;;;;;;5.20;2.78;;;;;;;10.27;100.00;97426.22;5071396;28;20028;-73
2023/10/29 03:54:36;;;;;;;5.05;2.60;;;;;;;10.30;100.00;97424.19;5072671;28;20054;-75
2023/10/29 03:57:01;;;;;;;5.22;3.20;;;;;;;10.31;100.00;97436.63;5088250;28;20034;-73
2023/10/29 03:59:27;;;;;;;7.10;2.95;;;;;;;10.37;100.00;97437.22;5071321;28;20024;-74
2023/10/29 04:01:52;;;;;;;9.20;2.75;;;;;;;10.37;100.00;97445.22;5071527;28;20404;-75
2023/10/29 04:04:18;;;;;;;8.15;3.20;;;;;;;10.34;100.00;97436.41;5071547;28;20037;-73
2023/10/29 04:06:44;;;;;;;6.10;2.47;;;;;;;10.34;100.00;97447.13;5071364;28;20063;-74
2023/10/29 04:09:09;;;;;;;3.28;2.65;;;;;;;10.31;100.00;97443.78;5072565;28;20020;-74
2023/10/29 04:11:35;;;;;;;4.90;2.65;;;;;;;10.22;100.00;97447.88;5088002;28;20112;-74
2023/10/29 04:14:01;;;;;;;7.40;2.70;;;;;;;10.15;100.00;97446.53;5072821;28;20017;-74
2023/10/29 04:16:28;;;;;;;7.53;2.40;;;;;;;10.17;100.00;97458.00;5087889;28;20029;-75
2023/10/29 04:18:53;;;;;;;6.32;2.60;;;;;;;10.13;100.00;97456.47;5070818;28;20024;-74
2023/10/29 04:21:19;;;;;;;8.02;3.20;;;;;;;10.06;100.00;97449.75;5070804;28;20044;-74
2023/10/29 04:23:44;;;;;;;10.48;4.03;;;;;;;10.04;100.00;97462.34;5070887;28;20035;-73
2023/10/29 04:26:10;;;;;;;7.38;3.00;;;;;;;9.94;100.00;97461.19;5071050;28;20027;-73
2023/10/29 04:28:35;;;;;;;6.43;2.92;;;;;;;9.95;100.00;97456.72;5070669;28;20085;-73
2023/10/29 04:31:01;;;;;;;6.80;3.03;;;;;;;9.98;100.00;97454.72;5072128;28;20108;-73
2023/10/29 04:33:27;;;;;;;11.30;2.40;;;;;;;10.00;100.00;97463.47;5071082;28;20064;-74
2023/10/29 04:35:53;;;;;;;16.25;3.40;;;;;;;10.04;100.00;97469.50;5070685;28;20119;-74
2023/10/29 04:38:19;;;;;;;7.50;2.80;;;;;;;9.98;100.00;97465.41;5070667;28;20028;-73
2023/10/29 04:40:45;;;;;;;6.63;2.70;;;;;;;9.89;100.00;97457.94;5071661;28;20032;-73
2023/10/29 04:43:11;;;;;;;10.40;2.90;;;;;;;9.90;100.00;97467.69;5070609;28;20115;-74
2023/10/29 04:45:36;;;;;;;5.47;2.47;;;;;;;9.92;100.00;97467.56;5087539;28;20103;-75
2023/10/29 04:48:02;;;;;;;8.30;3.20;;;;;;;9.92;100.00;97471.13;5071569;28;20026;-75
2023/10/29 04:50:30;;;;;;;10.00;3.78;;;;;;;9.90;100.00;97470.34;5070468;28;20434;-76
2023/10/29 04:52:58;;;;;;;12.40;2.60;;;;;;;9.89;100.00;97471.31;5070468;28;20024;-75
2023/10/29 04:55:24;;;;;;;10.40;2.83;;;;;;;9.91;100.00;97474.72;5070524;28;20021;-75
2023/10/29 04:57:50;;;;;;;6.00;2.83;;;;;;;9.88;100.00;97474.91;5070276;28;20078;-75
2023/10/29 05:00:15;;;;;;;5.80;2.60;;;;;;;9.90;100.00;97481.03;5070288;28;20110;-75
2023/10/29 05:02:41;;;;;;;5.43;2.95;;;;;;;9.80;100.00;97472.72;5071473;28;20492;-74
2023/10/29 05:05:10;;;;;;;7.60;2.33;;;;;;;9.84;100.00;97473.41;5053239;28;20444;-74
2023/10/29 05:07:36;;;;;;;6.60;2.50;;;;;;;9.86;100.00;97481.31;5086855;28;20025;-74
2023/10/29 05:10:02;;;;;;;6.15;2.35;;;;;;;9.77;100.00;97482.72;5069924;28;20186;-76
2023/10/29 05:12:28;;;;;;;16.75;2.53;;;;;;;9.77;100.00;97477.38;5070031;28;20107;-73
2023/10/29 05:14:53;;;;;;;6.22;2.90;;;;;;;9.80;100.00;97477.19;5069745;28;20170;-74
2023/10/29 05:17:19;;;;;;;4.57;2.58;;;;;;;9.79;100.00;97483.47;5071150;28;20031;-74
2023/10/29 05:19:45;;;;;;;7.78;3.20;;;;;;;9.82;100.00;97483.28;5069848;28;20028;-73
2023/10/29 05:22:10;;;;;;;6.35;2.47;;;;;;;9.92;100.00;97502.31;5069528;28;20063;-73
2023/10/29 05:24:36;;;;;;;7.38;3.00;;;;;;;9.97;100.00;97495.72;5069903;28;20032;-74
2023/10/29 05:27:03;;;;;;;5.95;3.38;;;;;;;10.08;100.00;97506.66;5069621;28;20031;-74
2023/10/29 05:29:28;;;;;;;4.85;2.78;;;;;;;10.14;100.00;97503.63;5069298;28;20025;-74
2023/10/29 05:31:54;;;;;;;7.82;2.42;;;;;;;10.30;100.00;97509.75;5069405;28;20020;-74
2023/10/29 05:34:19;;;;;;;6.40;2.97;;;;;;;10.46;100.00;97506.16;5069589;28;20028;-74
2023/10/29 05:36:45;;;;;;;8.20;2.40;;;;;;;10.61;100.00;97507.88;5069569;28;20031;-75
2023/10/29 05:39:37;;;;;;;7.90;2.75;;;;;;;10.55;100.00;97492.19;5070173;28;20460;-75
2023/10/29 05:42:06;;;;;;;9.45;3.60;;;;;;;10.67;100.00;97523.53;5065810;28;20044;-74
2023/10/29 05:44:34;;;;;;;7.68;3.22;;;;;;;10.71;100.00;97514.34;5071021;28;20039;-76
2023/10/29 05:46:59;;;;;;;8.50;3.75;;;;;;;10.90;100.00;97525.59;5069241;28;20025;-75
2023/10/29 05:49:25;;;;;;;9.32;3.70;;;;;;;11.21;100.00;97530.72;5070058;28;20032;-75
2023/10/29 05:51:53;;;;;;;6.85;3.35;;;;;;;12.22;100.00;97539.09;5069368;28;20464;-74
2023/10/29 05:54:19;;;;;;;7.03;3.33;;;;;;;13.51;100.00;97528.00;5058447;28;20109;-74
2023/10/29 05:56:45;;;;;;;13.75;3.40;;;;;;;14.61;100.00;97524.03;5054114;28;20033;-74
2023/10/29 05:59:11;;;;;;;6.43;2.80;;;;;;;15.37;100.00;97515.22;5057215;28;20052;-75
2023/10/29 06:01:38;;;;;;;6.38;3.00;;;;;;;16.30;100.00;97527.19;5049291;28;20075;-76
2023/10/29 06:04:05;;;;;;;9.32;3.38;;;;;;;17.13;100.00;97522.59;5094887;28;20119;-74
2023/10/29 06:06:30;;;;;;;5.82;2.60;;;;;;;17.78;100.00;97524.78;5064940;28;20025;-74
2023/10/29 06:08:56;;;;;;;13.25;3.95;;;;;;;18.64;100.00;97523.94;5060224;28;20031;-75
2023/10/29 06:11:21;;;;;;;6.65;2.70;;;;;;;18.80;100.00;97501.66;5041504;28;20035;-74
2023/10/29 06:13:47;;;;;;;12.88;7.25;;;;;;;19.58;96.62;97524.78;5069171;28;20042;-74
2023/10/29 06:16:13;;;;;;;4.93;2.30;;;;;;;20.04;93.93;97513.75;5042147;28;20098;-74
2023/10/29 06:18:39;;;;;;;4.80;2.30;;;;;;;20.86;89.80;97525.19;5040857;28;20054;-74
2023/10/29 06:21:04;;;;;;;9.80;3.00;;;;;;;21.59;80.52;97515.56;5067318;28;20128;-72
2023/10/29 06:23:30;;;;;;;8.07;3.15;;;;;;;21.40;78.18;97515.00;5052492;28;20385;-73
2023/10/29 06:25:55;;;;;;;5.55;2.42;;;;;;;21.01;84.48;97517.31;5070045;28;20028;-73
2023/10/29 06:28:21;;;;;;;5.95;2.35;;;;;;;21.03;86.45;97524.31;5068620;28;20051;-74
2023/10/29 06:30:46;;;;;;;4.28;2.38;;;;;;;21.49;85.18;97527.63;5068746;28;20028;-72
2023/10/29 06:33:12;;;;;;;9.65;2.60;;;;;;;22.13;80.57;97527.88;5068591;28;20484;-72
2023/10/29 06:35:40;;;;;;;9.60;3.30;;;;;;;22.29;76.34;97521.59;5069154;28;20410;-75
2023/10/29 06:38:06;;;;;;;6.25;2.92;;;;;;;21.87;79.42;97518.91;5068797;28;20110;-73
2023/10/29 06:40:31;;;;;;;15.88;5.97;;;;;;;21.53;83.01;97518.13;5069023;28;20036;-73
2023/10/29 06:42:57;;;;;;;7.85;3.50;;;;;;;21.39;85.16;97524.16;5073722;28;20431;-73
2023/10/29 06:45:22;;;;;;;6.05;3.15;;;;;;;21.70;84.28;97519.88;5072799;28;20635;-74
2023/10/29 06:47:48;;;;;;;5.32;2.97;;;;;;;21.76;84.58;97524.66;5072774;28;20027;-72
2023/10/29 06:50:14;;;;;;;11.60;3.83;;;;;;;22.00;82.24;97523.91;5072566;28;20056;-77
2023/10/29 06:52:39;;;;;;;9.55;4.40;;;;;;;22.37;78.84;97521.59;5072956;28;20506;-73
2023/10/29 06:55:06;;;;;;;7.38;3.08;;;;;;;22.83;74.59;97533.72;5089611;28;20035;-72
2023/10/29 06:57:32;;;;;;;10.60;3.13;;;;;;;23.48;70.56;97533.63;5072711;28;20024;-73
2023/10/29 06:59:59;;;;;;;15.05;3.83;;;;;;;23.88;66.41;97530.72;5072473;28;20396;-72
2023/10/29 07:02:25;;;;;;;14.23;3.30;;;;;;;24.24;64.47;97531.09;5073243;28;20408;-72
2023/10/29 07:04:50;;;;;;;10.05;4.07;;;;;;;24.40;62.79;97535.56;5072385;28;20028;-73
2023/10/29 07:07:16;;;;;;;10.80;3.80;;;;;;;23.93;63.47;97539.28;5072603;28;20035;-72
2023/10/29 07:09:41;;;;;;;13.32;4.10;;;;;;;23.42;66.62;97539.78;5073743;28;20036;-73
2023/10/29 07:12:07;;;;;;;11.35;4.68;;;;;;;23.84;65.83;97551.25;5072313;28;20029;-72
2023/10/29 07:14:33;;;;;;;11.63;4.22;;;;;;;24.41;62.91;97538.16;5072476;28;20028;-73
2023/10/29 07:16:58;;;;;;;16.27;4.18;;;;;;;25.35;58.20;97544.00;5073586;28;20111;-72
2023/10/29 07:19:24;;;;;;;10.02;3.20;;;;;;;25.52;56.46;97538.38;5072350;28;20024;-72
2023/10/29 07:21:49;;;;;;;14.88;3.85;;;;;;;25.69;54.79;97531.66;5073372;28;20510;-72
2023/10/29 07:24:15;;;;;;;9.32;3.13;;;;;;;25.84;54.21;97532.53;5071976;28;20024;-73
2023/10/29 07:26:41;;;;;;;10.55;3.05;;;;;;;25.99;53.17;97543.47;5071996;28;20035;-73
2023/10/29 07:29:06;;;;;;;7.47;3.60;;;;;;;26.47;52.04;97548.28;5072140;28;20037;-72
2023/10/29 07:31:32;;;;;;;6.90;3.17;;;;;;;26.00;53.72;97551.47;5072017;28;20029;-72
2023/10/29 07:33:57;;;;;;;7.85;2.80;;;;;;;27.17;50.62;97537.34;5072232;28;20047;-72
2023/10/29 07:36:23;;;;;;;6.85;2.80;;;;;;;27.51;48.74;97520.09;5072012;28;20028;-73
2023/10/29 07:38:49;;;;;;;10.48;6.05;;;;;;;28.09;47.73;97523.38;5072047;28;20035;-73
2023/10/29 07:41:19;;;;;;;7.78;2.80;;;;;;;27.93;47.30;97532.81;5073016;28;20465;-74
2023/10/29 07:43:45;;;;;;;9.13;3.08;;;;;;;26.73;48.98;97534.81;5072012;28;20576;-74
2023/10/29 07:46:10;;;;;;;11.65;5.93;;;;;;;26.00;50.79;97535.03;5071870;28;20056;-73
2023/10/29 07:48:36;;;;;;;9.90;3.58;;;;;;;25.73;52.37;97543.94;5071826;28;20025;-72
2023/10/29 07:51:01;;;;;;;8.07;3.33;;;;;;;26.25;51.41;97544.66;5071789;28;20074;-74
2023/10/29 07:53:30;;;;;;;11.70;3.50;;;;;;;26.44;50.92;97545.06;5070920;28;20379;-73
2023/10/29 07:56:08;;;;;;;16.40;3.72;;;;;;;26.60;51.02;97553.06;5071776;28;20054;-72
2023/10/29 07:58:34;;;;;;;8.98;3.10;;;;;;;26.64;50.14;97540.66;5071737;28;20024;-72
2023/10/29 08:01:00;;;;;;;11.45;3.00;;;;;;;26.76;49.47;97544.59;5072006;28;20028;-74
2023/10/29 08:03:26;;;;;;;7.13;2.88;;;;;;;25.62;51.72;97549.91;5088179;28;20078;-74
2023/10/29 08:05:52;;;;;;;9.63;3.13;;;;;;;26.67;49.28;97554.00;5073260;28;20024;-73
2023/10/29 08:08:18;;;;;;;8.48;2.63;;;;;;;27.27;47.88;97545.25;5071364;28;20020;-73
2023/10/29 08:10:44;;;;;;;8.18;3.45;;;;;;;27.83;46.41;97546.94;5072504;28;20089;-72
2023/10/29 08:13:10;;;;;;;3.88;2.55;;;;;;;27.86;46.70;97551.19;5073060;28;20116;-74
2023/10/29 08:15:42;;;;;;;11.02;2.30;;;;;;;28.39;45.77;97557.78;5071286;28;20115;-74
2023/10/29 08:18:15;;;;;;;;;;;;;;;28.97;44.83;97561.78;5072265;28;20074;-74
2023/10/29 08:20:44;;;;;;;4.88;2.20;;;;;;;28.81;43.48;97553.91;5087859;28;19916;-73
2023/10/29 08:23:10;;;;;;;3.53;1.92;;;;;;;28.40;44.42;97542.97;5072679;28;20181;-73
2023/10/29 08:25:36;;;;;;;4.43;1.80;;;;;;;28.92;42.88;97550.50;5071204;28;20357;-74
2023/10/29 08:28:02;;;;;;;6.45;2.10;;;;;;;28.67;41.61;97536.50;5070994;28;20048;-73
2023/10/29 08:30:28;;;;;;;6.70;2.30;;;;;;;28.92;42.14;97556.88;5071128;28;20511;-72
2023/10/29 08:32:54;;;;;;;6.90;3.10;;;;;;;29.46;41.31;97553.97;5071353;28;20020;-73
2023/10/29 08:35:20;;;;;;;4.45;2.00;;;;;;;29.82;40.59;97542.47;5072405;28;20020;-74
2023/10/29 08:37:46;;;;;;;5.18;2.15;;;;;;;30.36;39.03;97541.22;5071038;28;20512;-74
2023/10/29 08:40:12;;;;;;;7.60;1.85;;;;;;;30.30;38.93;97539.31;5070931;28;20477;-73
2023/10/29 08:42:38;;;;;;;5.40;1.83;;;;;;;30.01;38.79;97537.94;5070789;28;20091;-72
2023/10/29 08:45:04;;;;;;;6.50;2.17;;;;;;;30.41;38.93;97541.41;5087621;28;20044;-73
2023/10/29 08:47:31;;;;;;;7.00;2.13;;;;;;;30.72;38.49;97526.78;5070939;28;20034;-73
2023/10/29 08:49:57;;;;;;;10.43;2.60;;;;;;;30.82;38.24;97521.63;5070646;28;20028;-74
2023/10/29 08:52:25;;;;;;;7.82;1.85;;;;;;;32.05;36.02;97512.44;5070639;28;20040;-73
2023/10/29 08:54:51;;;;;;;4.55;1.80;;;;;;;32.41;35.36;97517.94;5070858;28;20027;-75
2023/10/29 08:57:19;;;;;;;7.72;1.95;;;;;;;32.87;34.71;97522.00;5071735;28;20025;-73
2023/10/29 08:59:45;;;;;;;7.40;1.95;;;;;;;33.00;34.84;97521.81;5070301;28;20127;-73
2023/10/29 09:02:11;;;;;;;6.13;2.15;;;;;;;33.35;34.23;97511.63;5071635;28;20028;-72
2023/10/29 09:04:39;;;;;;;6.07;2.13;;;;;;;33.15;34.31;97514.75;5070610;28;20074;-72
2023/10/29 09:07:05;;;;;;;12.15;2.25;;;;;;;33.55;33.22;97505.72;5070208;28;20035;-74
2023/10/29 09:09:31;;;;;;;12.98;4.05;;;;;;;33.96;32.74;97510.31;5070319;28;20033;-71
2023/10/29 09:11:57;;;;;;;5.57;1.85;;;;;;;34.30;32.66;97501.09;5070073;28;20021;-72
2023/10/29 09:14:22;;;;;;;6.78;1.83;;;;;;;34.61;31.67;97503.41;5071670;28;20055;-73
2023/10/29 09:16:48;;;;;;;15.50;2.83;;;;;;;35.10;31.53;97501.00;5071881;28;20029;-73
2023/10/29 09:19:14;;;;;;;3.97;1.90;;;;;;;34.76;30.85;97500.91;5071169;28;20039;-74
2023/10/29 09:21:39;;;;;;;4.15;2.00;;;;;;;33.40;31.87;97494.28;5069883;28;20066;-74
2023/10/29 09:24:06;;;;;;;5.80;1.90;;;;;;;33.57;31.62;97490.53;5069821;28;20416;-74
2023/10/29 09:26:32;;;;;;;3.38;1.38;;;;;;;33.53;31.78;97492.06;5070090;28;20032;-73
2023/10/29 09:29:00;;;;;;;4.50;2.10;;;;;;;33.39;32.17;97487.88;5071306;28;20017;-74
2023/10/29 09:31:25;;;;;;;3.55;1.40;;;;;;;33.94;31.40;97477.22;5068538;28;20396;-73
2023/10/29 09:33:51;;;;;;;2.92;1.67;;;;;;;34.27;31.17;97479.38;5086404;28;20024;-73
2023/10/29 09:36:18;;;;;;;8.60;2.20;;;;;;;35.12;29.92;97477.41;5069495;28;20664;-75
2023/10/29 09:38:43;;;;;;;4.70;2.13;;;;;;;35.90;29.37;97477.22;5060067;28;20055;-74
2023/10/29 09:41:09;;;;;;;7.82;3.25;;;;;;;35.61;28.99;97469.28;5033531;28;20079;-75
2023/10/29 09:43:40;;;;;;;8.52;2.50;;;;;;;35.81;28.87;97464.84;5081936;28;20040;-73
2023/10/29 09:46:06;;;;;;;;;;;;;;;35.90;29.13;97463.31;5094345;28;20111;-72
2023/10/29 09:48:33;;;;;;;8.52;2.90;;;;;;;35.79;28.37;97452.28;5080470;28;20045;-72
2023/10/29 09:51:02;;;;;;;6.75;2.50;;;;;;;35.22;28.84;97460.88;5053819;28;20032;-74
2023/10/29 09:53:28;;;;;;;6.13;1.50;;;;;;;34.35;29.69;97455.88;5099437;28;20476;-73
2023/10/29 09:55:54;;;;;;;4.50;1.58;;;;;;;34.76;29.25;97455.59;5049582;28;20094;-73
2023/10/29 09:58:22;;;;;;;4.78;2.00;;;;;;;35.16;29.48;97453.53;5049248;28;20377;-73
2023/10/29 10:00:49;;;;;;;8.52;2.35;;;;;;;35.78;29.18;97448.66;5061612;28;20029;-71
2023/10/29 10:03:15;;;;;;;4.45;1.50;;;;;;;36.07;28.30;97446.56;5044445;28;20036;-73
2023/10/29 10:05:42;;;;;;;5.32;1.33;;;;;;;35.96;27.79;97441.94;5069231;28;20036;-71
2023/10/29 10:08:09;;;;;;;4.95;1.80;;;;;;;35.86;27.96;97439.88;5052597;28;20104;-74
2023/10/29 10:10:44;;;;;;;6.80;2.30;;;;;;;35.19;28.30;97438.28;5068621;28;20036;-72
2023/10/29 10:13:10;;;;;;;4.85;2.20;;;;;;;32.77;30.75;97444.13;5088313;28;20115;-73
2023/10/29 10:15:37;;;;;;;4.90;1.60;;;;;;;32.81;31.06;97445.34;5102463;28;20150;-72
2023/10/29 10:18:07;;;;;;;4.68;1.80;;;;;;;33.82;29.69;97437.53;5100187;28;20048;-72
2023/10/29 10:20:36;;;;;;;7.53;1.77;;;;;;;34.01;29.38;97441.00;5068934;28;20028;-73
2023/10/29 10:23:05;;;;;;;6.07;2.15;;;;;;;34.23;29.16;97428.16;5052532;28;20028;-73
2023/10/29 10:25:33;;;;;;;3.17;1.55;;;;;;;33.32;29.74;97430.84;5069013;28;20036;-73
2023/10/29 10:28:00;;;;;;;4.82;1.85;;;;;;;31.95;31.13;97434.59;5052671;28;20403;-73
2023/10/29 10:30:31;;;;;;;9.63;1.98;;;;;;;33.17;30.46;97428.53;5102556;28;20028;-73
2023/10/29 10:33:14;;;;;;;8.20;2.88;;;;;;;33.51;29.97;97429.59;5062278;28;20177;-73
2023/10/29 10:35:43;;;;;;;6.82;2.63;;;;;;;34.93;28.88;97423.06;5077458;28;20036;-73
2023/10/29 10:38:09;;;;;;;6.30;2.10;;;;;;;34.87;29.11;97423.25;5069032;28;20043;-74
2023/10/29 10:40:35;;;;;;;6.97;1.42;;;;;;;36.08;27.77;97420.41;5049362;28;20112;-73
2023/10/29 10:43:01;;;;;;;3.72;1.70;;;;;;;36.72;26.64;97421.41;5063629;28;20103;-72
2023/10/29 10:45:29;;;;;;;3.78;1.55;;;;;;;35.64;27.26;97413.94;5052098;28;20025;-73
2023/10/29 10:47:56;;;;;;;4.80;1.45;;;;;;;34.87;28.21;97412.97;5052789;28;20491;-74
2023/10/29 10:50:26;;;;;;;4.25;2.03;;;;;;;35.02;28.66;97418.78;5060011;28;20025;-73
2023/10/29 10:52:52;;;;;;;11.40;2.30;;;;;;;35.49;28.06;97401.72;5061886;28;20435;-74
2023/10/29 10:55:22;;;;;;;6.85;2.40;;;;;;;36.46;27.26;97411.06;5060779;28;20086;-74
2023/10/29 10:57:51;;;;;;;7.30;2.15;;;;;;;36.83;26.08;97402.81;5065145;28;20021;-76
2023/10/29 11:00:18;;;;;;;2.95;1.40;;;;;;;36.13;26.86;97395.38;5057332;28;20032;-73
2023/10/29 11:02:44;;;;;;;4.78;1.35;;;;;;;37.06;25.95;97398.84;5058875;28;20057;-74
2023/10/29 11:05:11;;;;;;;6.13;1.65;;;;;;;36.58;26.60;97397.81;5088820;28;20025;-73
2023/10/29 11:07:38;;;;;;;5.00;1.67;;;;;;;37.38;25.81;97391.25;5057686;28;20050;-72
2023/10/29 11:10:05;;;;;;;7.90;2.15;;;;;;;37.08;25.54;97386.31;5060450;28;20040;-72
2023/10/29 11:12:36;;;;;;;5.30;1.85;;;;;;;36.76;26.20;97386.28;5035851;28;20429;-72
2023/10/29 11:15:20;;;;;;;5.25;1.70;;;;;;;36.78;26.14;97386.88;5062629;28;20052;-71
2023/10/29 11:17:49;;;;;;;8.35;2.10;;;;;;;36.87;26.56;97382.50;5048664;28;20496;-73
2023/10/29 11:20:46;;;;;;;5.03;2.20;;;;;;;36.88;25.82;97378.59;5063469;28;20032;-73
2023/10/29 11:23:28;;;;;;;5.88;2.72;;;;;;;37.31;25.54;97373.91;5064733;28;20135;-72
2023/10/29 11:26:20;;;;;;;8.15;2.28;;;;;;;37.14;25.61;97374.06;5068720;28;20157;-72